Time;durP1;ratioP1;P1;durP2;ratioP2;P2;SDS_P1;SDS_P2;PMS_P1;PMS_P2;Temp;Humidity;BMP_temperature;BMP_pressure;BME280_temperature;BME280_humidity;BME280_pressure;Samples;Min_cycle;Max_cycle;Signal;HPM_P1;HPM_P2
2023/05/24 00:00:32;;;;;;;32.20;6.90;;;;;;;;;;5087272;28;20040;-62
2023/05/24 00:02:58;;;;;;;35.70;6.97;;;;;;;;;;5080501;28;20070;-62
2023/05/24 00:05:23;;;;;;;32.53;7.97;;;;;;;;;;5086868;28;20032;-62
2023/05/24 00:07:48;;;;;;;41.00;8.97;;;;;;;;;;5083560;28;20076;-61
2023/05/24 00:10:14;;;;;;;43.50;8.50;;;;;;;;;;5089103;28;20023;-61
2023/05/24 00:12:39;;;;;;;38.83;7.80;;;;;;;;;;5089157;28;20036;-62
2023/05/24 00:15:05;;;;;;;41.47;7.97;;;;;;;;;;5089869;28;20023;-61
2023/05/24 00:17:31;;;;;;;38.80;7.23;;;;;;;;;;5091369;28;20058;-62
2023/05/24 00:19:56;;;;;;;43.10;8.73;;;;;;;;;;5086389;28;20028;-62
2023/05/24 00:22:21;;;;;;;32.67;8.17;;;;;;;;;;5090102;28;20487;-62
2023/05/24 00:24:47;;;;;;;37.23;7.87;;;;;;;;;;5088354;28;20429;-62
2023/05/24 00:27:13;;;;;;;47.10;8.73;;;;;;;;;;5090114;28;20039;-62
2023/05/24 00:29:38;;;;;;;33.33;7.93;;;;;;;;;;5087358;28;20020;-62
2023/05/24 00:32:04;;;;;;;41.17;8.30;;;;;;;;;;5090427;28;20035;-61
2023/05/24 00:34:29;;;;;;;41.40;9.00;;;;;;;;;;5087733;28;20498;-61
2023/05/24 00:36:55;;;;;;;36.47;7.47;;;;;;;;;;5092640;28;20368;-61
2023/05/24 00:39:21;;;;;;;36.87;8.40;;;;;;;;;;5092072;28;20016;-62
2023/05/24 00:41:46;;;;;;;37.67;8.27;;;;;;;;;;5095128;28;20016;-62
2023/05/24 00:44:11;;;;;;;40.23;9.00;;;;;;;;;;5093753;28;20028;-61
2023/05/24 00:46:37;;;;;;;36.60;8.00;;;;;;;;;;5093399;28;20049;-61
2023/05/24 00:49:02;;;;;;;40.00;8.70;;;;;;;;;;5090734;28;20127;-61
2023/05/24 00:51:28;;;;;;;44.77;9.23;;;;;;;;;;5089902;28;20036;-61
2023/05/24 00:53:53;;;;;;;37.10;9.77;;;;;;;;;;5090550;28;20094;-62
2023/05/24 00:56:19;;;;;;;41.37;9.73;;;;;;;;;;5095055;28;20026;-62
2023/05/24 00:58:44;;;;;;;47.90;9.87;;;;;;;;;;5095493;28;20012;-61
2023/05/24 01:04:12;;;;;;;42.00;10.95;;;;;;;;;;5094874;28;20313;-72
2023/05/24 01:06:43;;;;;;;52.97;9.33;;;;;;;;;;5094029;28;20425;-72
2023/05/24 01:09:15;;;;;;;44.75;9.93;;;;;;;;;;5091747;28;20148;-72
2023/05/24 01:12:01;;;;;;;47.93;9.67;;;;;;;;;;5084491;28;20028;-73
2023/05/24 01:14:55;;;;;;;40.93;9.87;;;;;;;;;;5031114;28;20042;-72
2023/05/24 01:17:31;;;;;;;42.73;11.27;;;;;;;;;;4989552;28;20487;-72
2023/05/24 01:20:01;;;;;;;39.17;8.47;;;;;;;;;;5027818;28;20037;-73
2023/05/24 01:22:52;;;;;;;48.90;10.07;;;;;;;;;;5032109;28;20400;-72
2023/05/24 01:25:49;;;;;;;44.97;10.77;;;;;;;;;;4952246;28;20234;-72
2023/05/24 01:28:19;;;;;;;46.60;10.87;;;;;;;;;;4939925;28;20035;-73
2023/05/24 01:30:45;;;;;;;41.83;9.37;;;;;;;;;;4951750;28;20118;-72
2023/05/24 01:33:10;;;;;;;36.77;8.90;;;;;;;;;;4937413;29;20114;-73
2023/05/24 01:35:39;;;;;;;38.20;9.40;;;;;;;;;;4952571;28;20035;-73
2023/05/24 01:38:07;;;;;;;29.83;9.50;;;;;;;;;;4953140;28;20032;-73
2023/05/24 01:40:33;;;;;;;35.73;9.63;;;;;;;;;;4953203;28;20832;-73
2023/05/24 01:43:03;;;;;;;31.33;8.77;;;;;;;;;;4951713;28;20046;-73
2023/05/24 01:45:48;;;;;;;37.97;9.23;;;;;;;;;;4934157;28;20019;-73
2023/05/24 01:48:46;;;;;;;50.47;10.37;;;;;;;;;;4949140;28;20036;-73
2023/05/24 01:51:14;;;;;;;38.50;8.43;;;;;;;;;;4958420;28;20031;-73
2023/05/24 01:53:41;;;;;;;43.43;8.83;;;;;;;;;;4978996;28;20022;-73
2023/05/24 01:56:07;;;;;;;43.50;9.57;;;;;;;;;;4978832;28;20038;-73
2023/05/24 01:58:33;;;;;;;40.07;8.73;;;;;;;;;;4982903;28;20022;-73
2023/05/24 02:00:58;;;;;;;35.73;9.37;;;;;;;;;;4981705;28;20023;-73
2023/05/24 02:03:24;;;;;;;44.83;10.07;;;;;;;;;;5069955;28;20044;-73
2023/05/24 02:05:49;;;;;;;38.47;8.80;;;;;;;;;;5055519;28;20017;-73
2023/05/24 02:08:14;;;;;;;41.13;9.13;;;;;;;;;;5067858;28;20081;-73
2023/05/24 02:10:40;;;;;;;43.10;8.97;;;;;;;;;;5071468;28;20027;-73
2023/05/24 02:13:06;;;;;;;40.03;9.60;;;;;;;;;;5071595;28;20364;-73
2023/05/24 02:15:32;;;;;;;40.83;9.13;;;;;;;;;;5061743;28;20016;-72
2023/05/24 02:17:57;;;;;;;48.00;8.97;;;;;;;;;;5059109;28;20065;-73
2023/05/24 02:20:23;;;;;;;33.40;7.90;;;;;;;;;;5069860;28;20013;-72
2023/05/24 02:22:48;;;;;;;37.90;9.43;;;;;;;;;;5062672;28;20021;-73
2023/05/24 02:25:13;;;;;;;37.70;8.87;;;;;;;;;;5062840;28;20103;-73
2023/05/24 02:27:39;;;;;;;33.40;8.97;;;;;;;;;;5071858;28;20021;-73
2023/05/24 02:30:05;;;;;;;38.83;9.47;;;;;;;;;;5062952;28;20024;-73
2023/05/24 02:32:31;;;;;;;35.73;8.73;;;;;;;;;;5072523;28;20052;-73
2023/05/24 02:34:58;;;;;;;34.93;8.67;;;;;;;;;;5072144;28;20031;-73
2023/05/24 02:37:23;;;;;;;33.70;8.80;;;;;;;;;;5067316;28;20480;-72
2023/05/24 02:39:48;;;;;;;45.67;11.50;;;;;;;;;;5064779;28;20017;-72
2023/05/24 02:42:14;;;;;;;36.33;10.17;;;;;;;;;;5071109;28;20122;-73
2023/05/24 02:44:41;;;;;;;43.90;9.80;;;;;;;;;;5072384;28;20020;-67
2023/05/24 02:47:06;;;;;;;47.57;10.07;;;;;;;;;;5061234;28;20538;-72
2023/05/24 02:49:31;;;;;;;44.70;10.47;;;;;;;;;;5065875;28;20112;-73
2023/05/24 02:51:57;;;;;;;36.77;10.40;;;;;;;;;;5062465;28;20028;-73
2023/05/24 02:54:22;;;;;;;39.30;9.47;;;;;;;;;;5060854;28;20110;-73
2023/05/24 02:56:47;;;;;;;42.10;9.90;;;;;;;;;;5064584;28;20045;-73
2023/05/24 02:59:13;;;;;;;42.17;9.07;;;;;;;;;;5066262;28;20482;-73
2023/05/24 03:01:39;;;;;;;41.73;8.47;;;;;;;;;;5063610;28;20431;-73
2023/05/24 03:04:04;;;;;;;38.27;8.97;;;;;;;;;;5061528;28;20121;-73
2023/05/24 03:06:29;;;;;;;41.13;9.53;;;;;;;;;;5057745;28;20028;-73
2023/05/24 03:08:55;;;;;;;31.77;8.43;;;;;;;;;;5053640;28;20021;-73
2023/05/24 03:11:21;;;;;;;36.67;8.30;;;;;;;;;;5060089;28;20035;-73
2023/05/24 03:13:47;;;;;;;36.47;8.80;;;;;;;;;;5036047;28;20021;-73
2023/05/24 03:16:12;;;;;;;36.87;8.80;;;;;;;;;;5066074;28;20021;-73
2023/05/24 03:18:38;;;;;;;31.03;8.00;;;;;;;;;;5068476;28;20017;-73
2023/05/24 03:21:03;;;;;;;26.77;8.07;;;;;;;;;;5060496;28;20017;-73
2023/05/24 03:23:28;;;;;;;35.03;8.23;;;;;;;;;;5060436;28;20032;-73
2023/05/24 03:25:54;;;;;;;40.23;8.80;;;;;;;;;;5038967;28;20021;-74
2023/05/24 03:28:21;;;;;;;32.13;8.80;;;;;;;;;;5058818;28;20025;-75
2023/05/24 03:30:46;;;;;;;33.90;9.23;;;;;;;;;;5063980;28;20024;-73
2023/05/24 03:33:11;;;;;;;37.60;8.70;;;;;;;;;;5058042;28;20028;-73
2023/05/24 03:35:36;;;;;;;34.73;8.87;;;;;;;;;;5057504;28;20469;-73
2023/05/24 03:38:02;;;;;;;39.10;8.20;;;;;;;;;;5058417;28;20101;-73
2023/05/24 03:40:31;;;;;;;33.37;7.90;;;;;;;;;;5064109;28;20425;-73
2023/05/24 03:42:56;;;;;;;35.83;8.17;;;;;;;;;;5058799;28;20485;-73
2023/05/24 03:45:21;;;;;;;32.13;7.80;;;;;;;;;;5058018;28;20017;-73
2023/05/24 03:47:47;;;;;;;31.07;8.73;;;;;;;;;;5056584;28;20104;-73
2023/05/24 03:50:13;;;;;;;33.37;8.70;;;;;;;;;;5060577;28;20523;-73
2023/05/24 03:52:38;;;;;;;34.97;7.80;;;;;;;;;;5057817;28;20052;-73
2023/05/24 03:55:04;;;;;;;36.20;7.83;;;;;;;;;;5055993;28;20044;-73
2023/05/24 03:57:29;;;;;;;34.37;7.90;;;;;;;;;;5060153;28;20520;-73
2023/05/24 03:59:54;;;;;;;32.47;7.67;;;;;;;;;;5065761;28;20053;-73
2023/05/24 04:02:19;;;;;;;39.57;8.93;;;;;;;;;;5063740;28;20036;-73
2023/05/24 04:04:45;;;;;;;29.40;7.33;;;;;;;;;;5060016;28;20108;-73
2023/05/24 04:07:10;;;;;;;33.67;8.20;;;;;;;;;;5063825;28;20021;-73
2023/05/24 04:09:36;;;;;;;29.23;6.17;;;;;;;;;;5039634;28;20032;-73
2023/05/24 04:12:02;;;;;;;25.67;6.80;;;;;;;;;;5067453;28;20111;-73
2023/05/24 04:14:27;;;;;;;34.80;7.13;;;;;;;;;;5059937;28;20020;-73
2023/05/24 04:16:53;;;;;;;35.60;7.90;;;;;;;;;;5066133;28;20024;-73
2023/05/24 04:19:19;;;;;;;31.67;7.27;;;;;;;;;;5065733;28;20056;-73
2023/05/24 04:21:44;;;;;;;26.80;7.43;;;;;;;;;;5059011;28;20048;-73
2023/05/24 04:24:10;;;;;;;23.03;6.73;;;;;;;;;;5059760;28;20025;-73
2023/05/24 04:26:36;;;;;;;35.57;7.33;;;;;;;;;;5059138;28;20424;-74
2023/05/24 04:29:04;;;;;;;24.87;6.30;;;;;;;;;;5067621;28;20024;-73
2023/05/24 04:31:32;;;;;;;23.27;6.27;;;;;;;;;;5058019;28;20028;-73
2023/05/24 04:33:58;;;;;;;31.20;7.43;;;;;;;;;;5060847;28;20021;-73
2023/05/24 04:36:24;;;;;;;28.03;6.40;;;;;;;;;;5059686;28;20021;-73
2023/05/24 04:38:52;;;;;;;24.17;5.60;;;;;;;;;;5058442;28;20027;-73
2023/05/24 04:41:17;;;;;;;23.60;5.80;;;;;;;;;;5061507;28;20356;-73
2023/05/24 04:43:43;;;;;;;21.63;5.30;;;;;;;;;;5058478;28;20148;-73
2023/05/24 04:46:08;;;;;;;27.70;5.53;;;;;;;;;;5060000;28;20122;-73
2023/05/24 04:48:33;;;;;;;25.00;5.37;;;;;;;;;;5057833;28;20013;-73
2023/05/24 04:50:59;;;;;;;25.67;6.00;;;;;;;;;;5059161;28;20157;-73
2023/05/24 04:53:24;;;;;;;25.27;6.00;;;;;;;;;;5061838;28;20495;-73
2023/05/24 04:55:50;;;;;;;27.20;5.83;;;;;;;;;;5058814;28;20032;-73
2023/05/24 04:58:15;;;;;;;25.10;5.60;;;;;;;;;;5057768;28;20025;-73
2023/05/24 05:00:41;;;;;;;21.37;5.50;;;;;;;;;;5059753;28;20012;-73
2023/05/24 05:03:06;;;;;;;28.23;5.80;;;;;;;;;;5061692;28;20056;-73
2023/05/24 05:05:32;;;;;;;26.13;6.47;;;;;;;;;;5059114;28;20074;-73
2023/05/24 05:07:57;;;;;;;20.83;4.80;;;;;;;;;;5071198;28;20036;-73
2023/05/24 05:10:22;;;;;;;20.27;4.83;;;;;;;;;;5069868;28;20059;-73
2023/05/24 05:12:48;;;;;;;21.43;5.63;;;;;;;;;;5070138;28;20024;-74
2023/05/24 05:15:13;;;;;;;21.43;5.47;;;;;;;;;;5069250;28;20085;-74
2023/05/24 05:17:38;;;;;;;24.33;5.80;;;;;;;;;;5071908;28;20119;-74
2023/05/24 05:20:04;;;;;;;23.63;5.17;;;;;;;;;;5067530;28;20019;-74
2023/05/24 05:22:30;;;;;;;29.00;6.10;;;;;;;;;;5072793;28;20020;-74
2023/05/24 05:24:55;;;;;;;23.03;6.07;;;;;;;;;;5071821;28;20484;-74
2023/05/24 05:27:20;;;;;;;22.83;5.17;;;;;;;;;;5073398;28;20024;-74
2023/05/24 05:29:46;;;;;;;25.57;5.77;;;;;;;;;;5053386;28;20055;-74
2023/05/24 05:32:11;;;;;;;23.80;5.57;;;;;;;;;;5072489;28;20024;-74
2023/05/24 05:34:36;;;;;;;26.73;5.73;;;;;;;;;;5074995;28;20016;-74
2023/05/24 05:37:01;;;;;;;26.70;6.37;;;;;;;;;;5073891;28;20226;-74
2023/05/24 05:39:27;;;;;;;22.57;5.43;;;;;;;;;;5071645;28;20025;-74
2023/05/24 05:41:52;;;;;;;29.43;5.63;;;;;;;;;;5071451;28;20024;-74
2023/05/24 05:44:17;;;;;;;22.37;5.60;;;;;;;;;;5073236;28;20086;-73
2023/05/24 05:46:44;;;;;;;23.40;5.20;;;;;;;;;;5072504;28;20050;-74
2023/05/24 05:49:10;;;;;;;22.70;4.90;;;;;;;;;;5073160;28;20036;-74
2023/05/24 05:51:37;;;;;;;27.87;5.93;;;;;;;;;;5073425;28;20052;-73
2023/05/24 05:54:02;;;;;;;21.07;4.87;;;;;;;;;;5074210;28;20440;-74
2023/05/24 05:56:28;;;;;;;28.37;5.87;;;;;;;;;;5073711;28;20040;-74
2023/05/24 05:58:53;;;;;;;23.10;4.80;;;;;;;;;;5073701;28;20099;-73
2023/05/24 06:01:18;;;;;;;22.23;5.43;;;;;;;;;;5074085;28;20366;-73
2023/05/24 06:03:43;;;;;;;26.40;5.10;;;;;;;;;;5072721;28;20044;-73
2023/05/24 06:06:09;;;;;;;25.70;5.50;;;;;;;;;;5074358;28;20108;-74
2023/05/24 06:08:35;;;;;;;23.67;5.57;;;;;;;;;;5072918;28;20044;-74
2023/05/24 06:11:00;;;;;;;29.37;4.90;;;;;;;;;;5075203;28;20017;-74
2023/05/24 06:13:27;;;;;;;22.80;5.10;;;;;;;;;;5073641;28;20025;-73
2023/05/24 06:15:52;;;;;;;21.60;5.13;;;;;;;;;;5072270;28;20021;-74
2023/05/24 06:18:17;;;;;;;25.07;5.13;;;;;;;;;;5065792;28;20024;-74
2023/05/24 06:20:43;;;;;;;25.60;5.27;;;;;;;;;;5075067;28;20048;-75
2023/05/24 06:23:08;;;;;;;22.87;5.03;;;;;;;;;;5072274;28;20027;-74
2023/05/24 06:25:34;;;;;;;23.40;5.27;;;;;;;;;;5073275;28;20012;-74
2023/05/24 06:27:59;;;;;;;22.30;4.83;;;;;;;;;;5052305;28;20036;-74
2023/05/24 06:30:25;;;;;;;22.50;5.67;;;;;;;;;;5069289;28;20151;-74
2023/05/24 06:32:50;;;;;;;22.83;5.30;;;;;;;;;;5065144;28;20115;-74
2023/05/24 06:35:15;;;;;;;20.67;5.07;;;;;;;;;;5073861;28;20539;-74
2023/05/24 06:37:41;;;;;;;27.20;5.23;;;;;;;;;;5072545;28;20081;-74
2023/05/24 06:40:08;;;;;;;17.47;5.03;;;;;;;;;;5071189;28;20025;-74
2023/05/24 06:42:34;;;;;;;25.57;5.50;;;;;;;;;;5055481;28;20153;-75
2023/05/24 06:44:59;;;;;;;22.17;4.67;;;;;;;;;;5072781;28;20037;-74
2023/05/24 06:47:24;;;;;;;20.13;4.47;;;;;;;;;;5068928;28;20023;-74
2023/05/24 06:49:49;;;;;;;23.00;4.63;;;;;;;;;;5055730;28;20029;-74
2023/05/24 06:52:15;;;;;;;26.30;4.40;;;;;;;;;;5052010;28;20059;-74
2023/05/24 06:54:40;;;;;;;22.50;4.73;;;;;;;;;;5072183;28;20031;-74
2023/05/24 06:57:05;;;;;;;20.80;5.00;;;;;;;;;;5072506;28;20093;-72
2023/05/24 06:59:31;;;;;;;22.17;4.90;;;;;;;;;;5066651;28;20079;-74
2023/05/24 07:01:56;;;;;;;18.70;4.40;;;;;;;;;;5061729;28;20028;-74
2023/05/24 07:04:25;;;;;;;23.67;5.20;;;;;;;;;;5064743;28;20115;-74
2023/05/24 07:06:51;;;;;;;24.17;4.70;;;;;;;;;;5065147;28;21025;-74
2023/05/24 07:09:16;;;;;;;23.30;4.60;;;;;;;;;;5070133;28;20020;-74
2023/05/24 07:11:42;;;;;;;25.67;5.40;;;;;;;;;;5060965;28;20519;-74
2023/05/24 07:14:07;;;;;;;22.20;4.00;;;;;;;;;;5063290;28;20369;-74
2023/05/24 07:16:32;;;;;;;19.10;4.53;;;;;;;;;;5043277;28;20543;-74
2023/05/24 07:18:58;;;;;;;21.37;4.43;;;;;;;;;;5062454;28;20066;-74
2023/05/24 07:21:23;;;;;;;20.60;4.30;;;;;;;;;;5046095;28;20025;-74
2023/05/24 07:23:50;;;;;;;21.87;4.37;;;;;;;;;;5063220;28;20043;-74
2023/05/24 07:26:15;;;;;;;19.97;4.53;;;;;;;;;;5069029;28;20056;-74
2023/05/24 07:28:40;;;;;;;22.00;4.20;;;;;;;;;;5067346;28;20109;-74
2023/05/24 07:31:08;;;;;;;31.13;4.50;;;;;;;;;;5064985;28;20040;-74
2023/05/24 07:33:35;;;;;;;19.17;4.70;;;;;;;;;;5064558;28;20077;-74
2023/05/24 07:36:00;;;;;;;24.90;4.30;;;;;;;;;;5061050;28;20139;-74
2023/05/24 07:38:25;;;;;;;20.03;4.27;;;;;;;;;;5065908;28;20108;-74
2023/05/24 07:40:51;;;;;;;24.17;4.70;;;;;;;;;;5062878;28;22134;-74
2023/05/24 07:43:16;;;;;;;24.73;4.30;;;;;;;;;;5065787;28;20028;-74
2023/05/24 07:45:42;;;;;;;23.77;4.83;;;;;;;;;;5065258;28;20468;-75
2023/05/24 07:48:07;;;;;;;24.93;4.67;;;;;;;;;;5065421;28;20103;-74
2023/05/24 07:50:32;;;;;;;24.33;4.53;;;;;;;;;;5039821;28;22007;-74
2023/05/24 07:52:58;;;;;;;20.00;4.33;;;;;;;;;;5070916;28;20020;-74
2023/05/24 07:55:24;;;;;;;23.45;4.93;;;;;;;;;;5068808;28;20028;-74
2023/05/24 07:57:49;;;;;;;24.08;4.53;;;;;;;;;;5042102;28;20052;-73
2023/05/24 08:00:15;;;;;;;20.95;4.00;;;;;;;;;;5054396;28;20049;-74
2023/05/24 08:02:41;;;;;;;20.08;5.10;;;;;;;;;;5049008;28;20040;-74
2023/05/24 08:05:08;;;;;;;22.10;4.87;;;;;;;;;;5064417;28;20032;-69
2023/05/24 08:07:34;;;;;;;19.15;4.57;;;;;;;;;;5069231;28;20118;-69
2023/05/24 08:09:59;;;;;;;24.60;4.87;;;;;;;;;;5059631;28;20460;-69
2023/05/24 08:12:24;;;;;;;21.93;4.60;;;;;;;;;;5050336;28;20081;-70
2023/05/24 08:14:50;;;;;;;23.27;5.23;;;;;;;;;;5070243;28;20028;-68
2023/05/24 08:17:15;;;;;;;29.53;5.20;;;;;;;;;;5057861;28;20021;-68
2023/05/24 08:19:40;;;;;;;23.63;4.90;;;;;;;;;;5069871;28;20480;-69
2023/05/24 08:22:06;;;;;;;24.97;4.40;;;;;;;;;;5062674;28;20051;-69
2023/05/24 08:24:31;;;;;;;24.43;5.60;;;;;;;;;;5070726;28;20028;-69
2023/05/24 08:26:56;;;;;;;27.77;5.47;;;;;;;;;;5066910;28;20430;-68
2023/05/24 08:29:22;;;;;;;29.43;5.40;;;;;;;;;;5068536;28;20024;-68
2023/05/24 08:31:48;;;;;;;25.90;5.17;;;;;;;;;;5065243;28;20020;-68
2023/05/24 08:34:14;;;;;;;23.67;5.33;;;;;;;;;;5061100;28;20167;-68
2023/05/24 08:36:41;;;;;;;17.43;4.50;;;;;;;;;;5062019;28;20017;-69
2023/05/24 08:39:06;;;;;;;25.83;4.13;;;;;;;;;;5057214;28;20472;-69
2023/05/24 08:41:36;;;;;;;22.87;4.50;;;;;;;;;;5062154;28;20031;-69
2023/05/24 08:44:02;;;;;;;23.07;4.50;;;;;;;;;;5062558;28;20036;-69
2023/05/24 08:46:28;;;;;;;23.08;4.97;;;;;;;;;;5064988;28;20020;-69
2023/05/24 08:48:53;;;;;;;17.58;4.53;;;;;;;;;;5064032;28;20740;-68
2023/05/24 08:51:19;;;;;;;20.80;4.07;;;;;;;;;;5062781;28;20020;-69
2023/05/24 08:53:47;;;;;;;22.85;4.28;;;;;;;;;;5065072;28;20809;-68
2023/05/24 08:56:16;;;;;;;23.45;4.15;;;;;;;;;;5062709;28;20077;-69
2023/05/24 08:58:41;;;;;;;21.88;3.83;;;;;;;;;;5061993;28;20062;-67
2023/05/24 09:01:07;;;;;;;27.92;4.85;;;;;;;;;;5067144;28;20456;-68
2023/05/24 09:03:34;;;;;;;22.27;4.00;;;;;;;;;;5079462;28;20047;-67
2023/05/24 09:06:00;;;;;;;24.45;4.93;;;;;;;;;;5068472;28;20077;-68
2023/05/24 09:08:27;;;;;;;20.08;3.63;;;;;;;;;;5078113;28;20032;-68
2023/05/24 09:10:53;;;;;;;21.67;4.50;;;;;;;;;;5094436;28;20024;-67
2023/05/24 09:13:18;;;;;;;22.50;4.15;;;;;;;;;;5093176;28;20092;-67
2023/05/24 09:15:43;;;;;;;21.00;3.92;;;;;;;;;;5092978;28;20472;-67
2023/05/24 09:18:09;;;;;;;17.95;3.80;;;;;;;;;;5094557;28;20042;-67
2023/05/24 09:20:34;;;;;;;22.20;3.90;;;;;;;;;;5089789;28;20460;-68
2023/05/24 09:23:02;;;;;;;23.17;4.40;;;;;;;;;;5093203;28;20020;-68
2023/05/24 09:25:28;;;;;;;18.67;3.97;;;;;;;;;;5093311;28;20035;-68
2023/05/24 09:27:55;;;;;;;22.73;5.10;;;;;;;;;;5076201;28;20039;-67
2023/05/24 09:30:20;;;;;;;24.20;4.70;;;;;;;;;;5088378;28;20487;-66
2023/05/24 09:32:56;;;;;;;20.55;4.50;;;;;;;;;;5082595;28;20026;-68
2023/05/24 09:35:21;;;;;;;21.63;4.60;;;;;;;;;;5085973;28;20376;-67
2023/05/24 09:37:47;;;;;;;23.73;4.20;;;;;;;;;;5093284;28;20027;-68
2023/05/24 09:40:19;;;;;;;19.52;3.65;;;;;;;;;;5096129;28;20027;-68
2023/05/24 09:42:45;;;;;;;21.55;4.40;;;;;;;;;;5091143;28;20610;-68
2023/05/24 09:45:11;;;;;;;18.23;3.55;;;;;;;;;;5091927;28;20552;-68
2023/05/24 09:47:37;;;;;;;20.00;4.47;;;;;;;;;;5093403;28;20076;-68
2023/05/24 09:50:03;;;;;;;19.58;4.28;;;;;;;;;;5092373;28;20028;-68
2023/05/24 09:52:28;;;;;;;27.13;5.22;;;;;;;;;;5094384;28;20024;-68
2023/05/24 09:54:54;;;;;;;21.23;4.00;;;;;;;;;;5095335;28;20031;-68
2023/05/24 09:57:21;;;;;;;20.90;4.65;;;;;;;;;;5096300;28;20028;-68
2023/05/24 09:59:47;;;;;;;20.63;4.18;;;;;;;;;;5096566;28;20016;-68
2023/05/24 10:02:14;;;;;;;19.23;4.20;;;;;;;;;;5095337;28;21466;-68
2023/05/24 10:04:40;;;;;;;18.60;5.00;;;;;;;;;;5096217;28;20022;-68
2023/05/24 10:07:05;;;;;;;19.10;4.18;;;;;;;;;;5089548;28;20028;-68
2023/05/24 10:09:34;;;;;;;21.92;4.80;;;;;;;;;;5097046;28;20035;-68
2023/05/24 10:12:03;;;;;;;15.70;3.88;;;;;;;;;;5095986;28;20525;-68
2023/05/24 10:14:31;;;;;;;18.52;4.30;;;;;;;;;;5092854;28;20028;-68
2023/05/24 10:16:56;;;;;;;19.15;3.80;;;;;;;;;;5096903;28;20110;-69
2023/05/24 10:19:22;;;;;;;14.77;4.15;;;;;;;;;;5077616;28;20050;-68
2023/05/24 10:21:48;;;;;;;20.38;4.13;;;;;;;;;;5096249;28;20020;-68
2023/05/24 10:24:18;;;;;;;21.15;3.90;;;;;;;;;;5095301;28;20059;-69
2023/05/24 10:26:47;;;;;;;18.83;4.22;;;;;;;;;;5095857;28;20379;-69
2023/05/24 10:29:16;;;;;;;19.92;4.18;;;;;;;;;;5089675;28;20036;-69
2023/05/24 10:31:43;;;;;;;13.68;3.85;;;;;;;;;;5096332;28;20024;-69
2023/05/24 10:34:09;;;;;;;15.63;3.42;;;;;;;;;;5095412;28;20028;-69
2023/05/24 10:36:35;;;;;;;15.82;4.10;;;;;;;;;;5096105;28;20064;-69
2023/05/24 10:39:02;;;;;;;17.67;3.60;;;;;;;;;;5084941;28;20042;-69
2023/05/24 10:41:27;;;;;;;20.63;4.30;;;;;;;;;;5086731;28;20103;-69
2023/05/24 10:43:53;;;;;;;19.95;4.05;;;;;;;;;;5092803;28;20471;-69
2023/05/24 10:46:20;;;;;;;17.17;3.60;;;;;;;;;;5094441;28;20031;-68
2023/05/24 10:48:57;;;;;;;17.27;4.00;;;;;;;;;;5093301;28;20160;-68
2023/05/24 10:51:33;;;;;;;16.35;3.85;;;;;;;;;;5094077;28;20023;-69
2023/05/24 10:54:09;;;;;;;21.48;4.22;;;;;;;;;;5091429;28;20106;-70
2023/05/24 10:56:38;;;;;;;22.30;4.60;;;;;;;;;;5082833;28;20445;-70
2023/05/24 10:59:05;;;;;;;16.75;3.90;;;;;;;;;;5060034;28;20024;-70
2023/05/24 11:01:31;;;;;;;16.38;3.45;;;;;;;;;;5073476;28;20100;-70
2023/05/24 11:04:09;;;;;;;18.38;3.78;;;;;;;;;;5068237;28;20429;-68
2023/05/24 11:06:43;;;;;;;17.67;3.78;;;;;;;;;;5073741;28;20020;-69
2023/05/24 11:09:09;;;;;;;18.80;3.85;;;;;;;;;;5066093;28;20013;-69
2023/05/24 11:11:36;;;;;;;16.42;3.83;;;;;;;;;;5073572;28;20019;-69
2023/05/24 11:14:03;;;;;;;17.95;3.78;;;;;;;;;;5069169;28;20051;-69
2023/05/24 11:16:32;;;;;;;20.55;3.97;;;;;;;;;;5071748;28;20388;-68
2023/05/24 11:19:03;;;;;;;19.63;4.15;;;;;;;;;;5062331;28;20024;-68
2023/05/24 11:21:28;;;;;;;19.53;4.27;;;;;;;;;;5071133;28;20021;-68
2023/05/24 11:23:54;;;;;;;18.90;4.30;;;;;;;;;;5068200;28;20751;-69
2023/05/24 11:26:20;;;;;;;20.98;4.20;;;;;;;;;;5072859;28;20052;-69
2023/05/24 11:28:46;;;;;;;17.35;3.65;;;;;;;;;;5071459;28;20081;-69
2023/05/24 11:31:12;;;;;;;18.00;3.97;;;;;;;;;;5069536;28;20033;-69
2023/05/24 13:29:00;;;;;;;20.75;4.20;;;;;;;;;;5058173;28;20476;-72
2023/05/24 13:31:25;;;;;;;20.63;5.32;;;;;;;;;;5062447;28;20025;-72
2023/05/24 13:33:50;;;;;;;19.13;4.75;;;;;;;;;;5056010;28;20029;-72
2023/05/24 13:36:16;;;;;;;22.30;4.40;;;;;;;;;;5058213;28;20504;-73
2023/05/24 13:38:41;;;;;;;18.67;4.30;;;;;;;;;;5062795;28;20028;-73
2023/05/24 13:41:06;;;;;;;21.65;5.78;;;;;;;;;;5070086;28;20389;-73
2023/05/24 13:43:32;;;;;;;18.17;3.95;;;;;;;;;;5056761;28;20048;-73
2023/05/24 13:45:57;;;;;;;21.67;4.68;;;;;;;;;;5055234;28;20036;-72
2023/05/24 13:48:22;;;;;;;20.15;3.95;;;;;;;;;;5055950;28;20017;-72
2023/05/24 13:50:48;;;;;;;22.65;4.55;;;;;;;;;;5055622;28;20119;-72
2023/05/24 13:53:14;;;;;;;19.20;4.75;;;;;;;;;;5055041;28;20089;-73
2023/05/24 13:55:39;;;;;;;16.20;3.95;;;;;;;;;;5055540;28;20021;-72
2023/05/24 13:58:04;;;;;;;16.13;4.47;;;;;;;;;;5058562;28;20017;-72
2023/05/24 14:00:30;;;;;;;16.75;4.22;;;;;;;;;;5056344;28;20025;-73
2023/05/24 14:02:55;;;;;;;18.27;4.60;;;;;;;;;;5057032;28;20032;-72
2023/05/24 14:05:21;;;;;;;18.25;4.53;;;;;;;;;;5059930;28;20042;-72
2023/05/24 14:07:47;;;;;;;16.60;4.53;;;;;;;;;;5054786;28;20070;-73
2023/05/24 14:10:12;;;;;;;18.83;4.18;;;;;;;;;;5057930;28;20052;-71
2023/05/24 14:12:37;;;;;;;18.38;4.68;;;;;;;;;;5066706;28;20100;-70
2023/05/24 14:15:06;;;;;;;22.48;4.45;;;;;;;;;;5061074;28;20020;-72
2023/05/24 14:17:31;;;;;;;18.80;4.10;;;;;;;;;;5062169;28;20382;-72
2023/05/24 14:19:57;;;;;;;16.80;4.25;;;;;;;;;;5061630;28;20020;-71
2023/05/24 14:22:24;;;;;;;16.70;4.40;;;;;;;;;;5060571;28;20013;-72
2023/05/24 14:24:50;;;;;;;14.02;3.80;;;;;;;;;;5056348;28;20079;-72
2023/05/24 14:27:15;;;;;;;16.27;4.22;;;;;;;;;;5056859;28;20049;-71
2023/05/24 14:29:40;;;;;;;16.17;3.70;;;;;;;;;;5055377;28;20075;-69
2023/05/24 14:32:05;;;;;;;20.73;4.20;;;;;;;;;;5043920;28;20057;-73
2023/05/24 14:34:31;;;;;;;14.20;3.55;;;;;;;;;;5037181;28;20483;-72
2023/05/24 14:36:56;;;;;;;15.30;3.72;;;;;;;;;;5035305;28;20468;-72
2023/05/24 14:39:21;;;;;;;13.13;3.78;;;;;;;;;;5037495;28;20025;-74
2023/05/24 14:41:47;;;;;;;18.58;3.97;;;;;;;;;;5046460;28;20022;-73
2023/05/24 14:44:12;;;;;;;17.08;4.15;;;;;;;;;;5045722;28;20026;-73
2023/05/24 14:46:38;;;;;;;17.73;4.35;;;;;;;;;;5036418;28;20033;-73
2023/05/24 14:49:07;;;;;;;14.90;4.03;;;;;;;;;;5041531;28;20025;-75
2023/05/24 14:51:32;;;;;;;17.38;4.30;;;;;;;;;;5040054;28;20033;-72
2023/05/24 14:53:57;;;;;;;13.40;3.58;;;;;;;;;;5052938;28;20024;-73
2023/05/24 14:56:23;;;;;;;17.33;4.30;;;;;;;;;;5054921;28;20039;-72
2023/05/24 14:58:48;;;;;;;17.17;3.88;;;;;;;;;;5050142;28;20018;-73
2023/05/24 15:01:13;;;;;;;17.58;4.38;;;;;;;;;;5038896;28;20017;-73
2023/05/24 15:03:39;;;;;;;22.98;4.40;;;;;;;;;;5048895;28;20029;-73
2023/05/24 15:06:04;;;;;;;23.95;3.88;;;;;;;;;;5042531;28;20087;-72
2023/05/24 15:08:30;;;;;;;15.90;3.70;;;;;;;;;;5042758;28;20057;-74
2023/05/24 15:10:55;;;;;;;13.98;3.55;;;;;;;;;;5042068;28;20383;-73
2023/05/24 15:13:21;;;;;;;15.15;3.47;;;;;;;;;;5034804;28;20108;-74
2023/05/24 15:15:47;;;;;;;20.50;4.30;;;;;;;;;;5043836;28;20021;-75
2023/05/24 15:18:12;;;;;;;12.68;3.47;;;;;;;;;;5040068;28;20031;-74
2023/05/24 15:20:37;;;;;;;16.15;3.67;;;;;;;;;;5043001;28;20485;-74
2023/05/24 15:23:03;;;;;;;13.98;3.72;;;;;;;;;;5044782;28;20546;-74
2023/05/24 15:25:28;;;;;;;12.50;3.30;;;;;;;;;;5039572;28;20078;-74
2023/05/24 15:27:54;;;;;;;13.43;3.70;;;;;;;;;;5039091;28;20045;-73
2023/05/24 15:30:19;;;;;;;13.48;2.85;;;;;;;;;;5041572;28;20029;-73
2023/05/24 15:32:45;;;;;;;13.48;3.70;;;;;;;;;;5040583;28;20028;-73
2023/05/24 15:35:10;;;;;;;11.90;2.97;;;;;;;;;;5044509;28;20391;-72
2023/05/24 15:37:35;;;;;;;15.57;3.70;;;;;;;;;;5043745;28;20059;-73
2023/05/24 15:40:01;;;;;;;17.35;4.38;;;;;;;;;;5035054;28;20013;-74
2023/05/24 15:42:26;;;;;;;18.38;4.13;;;;;;;;;;5043941;28;20493;-73
2023/05/24 15:44:51;;;;;;;16.33;3.72;;;;;;;;;;5041182;28;20029;-73
2023/05/24 15:47:17;;;;;;;10.63;3.10;;;;;;;;;;5034830;28;20053;-74
2023/05/24 15:49:42;;;;;;;13.32;3.25;;;;;;;;;;5042301;28;20031;-75
2023/05/24 15:52:08;;;;;;;16.33;3.80;;;;;;;;;;5039379;28;20060;-74
2023/05/24 15:54:33;;;;;;;15.02;3.50;;;;;;;;;;5042908;28;20078;-74
2023/05/24 15:57:02;;;;;;;10.60;3.40;;;;;;;;;;5039133;28;20429;-76
2023/05/24 15:59:27;;;;;;;12.68;3.67;;;;;;;;;;5048220;28;20032;-76
2023/05/24 16:01:53;;;;;;;11.40;3.67;;;;;;;;;;5039269;28;20022;-77
2023/05/24 16:04:19;;;;;;;13.20;3.85;;;;;;;;;;5046058;28;20025;-74
2023/05/24 16:06:44;;;;;;;12.23;3.72;;;;;;;;;;5039024;28;20025;-74
2023/05/24 16:09:10;;;;;;;14.65;3.55;;;;;;;;;;5032978;28;20375;-76
2023/05/24 16:11:35;;;;;;;16.27;3.67;;;;;;;;;;5044250;28;20029;-74
2023/05/24 16:14:02;;;;;;;12.20;3.58;;;;;;;;;;5040042;28;20040;-73
2023/05/24 16:16:27;;;;;;;11.13;3.67;;;;;;;;;;5049341;28;20025;-74
2023/05/24 16:18:53;;;;;;;14.32;3.72;;;;;;;;;;5038677;28;20033;-74
2023/05/24 16:21:18;;;;;;;15.95;3.70;;;;;;;;;;5039949;28;20467;-73